createdAt,value
2022-08-07T00:02:40.704Z,95.60
2022-08-07T00:05:03.890Z,95.80
2022-08-07T00:07:40.353Z,96.40
2022-08-07T00:10:25.943Z,96.80
2022-08-07T00:13:00.408Z,96.90
2022-08-07T00:15:37.768Z,97.10
2022-08-07T00:18:19.231Z,97.30
2022-08-07T00:20:49.258Z,97.30
2022-08-07T00:23:17.388Z,97.80
2022-08-07T00:25:45.836Z,98.50
2022-08-07T00:28:21.991Z,98.50
2022-08-07T00:30:51.434Z,98.70
2022-08-07T00:33:19.271Z,99.50
2022-08-07T00:35:49.731Z,99.90
2022-08-07T00:38:31.637Z,99.90
2022-08-07T00:41:01.304Z,99.90
2022-08-07T00:44:01.990Z,99.90
2022-08-07T00:46:18.390Z,99.90
2022-08-07T00:48:49.879Z,99.90
2022-08-07T00:51:17.974Z,99.90
2022-08-07T00:53:50.213Z,99.90
2022-08-07T00:56:19.129Z,99.90
2022-08-07T00:58:49.836Z,99.90
2022-08-07T01:01:22.315Z,99.90
2022-08-07T01:03:57.091Z,99.90
2022-08-07T01:06:28.392Z,99.90
2022-08-07T01:09:00.795Z,99.90
2022-08-07T01:12:27.473Z,99.90
2022-08-07T01:14:17.245Z,99.90
2022-08-07T01:16:50.885Z,99.90
2022-08-07T01:19:19.970Z,99.90
2022-08-07T01:21:50.149Z,99.90
2022-08-07T01:24:21.881Z,99.90
2022-08-07T01:26:52.264Z,99.90
2022-08-07T01:29:22.100Z,99.90
2022-08-07T01:31:50.285Z,99.90
2022-08-07T01:34:19.077Z,99.90
2022-08-07T01:36:52.753Z,99.90
2022-08-07T01:39:39.603Z,99.90
2022-08-07T01:42:38.619Z,99.90
2022-08-07T01:44:57.367Z,99.90
2022-08-07T01:48:18.320Z,99.90
2022-08-07T01:50:14.236Z,99.90
2022-08-07T01:52:49.407Z,99.90
2022-08-07T01:55:24.179Z,99.90
2022-08-07T01:58:05.939Z,99.90
2022-08-07T02:00:49.341Z,99.90
2022-08-07T02:03:21.646Z,99.90
2022-08-07T02:05:58.557Z,99.90
2022-08-07T02:08:30.387Z,99.90
2022-08-07T02:10:59.619Z,99.90
2022-08-07T02:13:56.393Z,99.90
2022-08-07T02:16:19.577Z,99.90
2022-08-07T02:18:48.758Z,99.90
2022-08-07T02:21:20.403Z,99.90
2022-08-07T02:23:50.058Z,99.90
2022-08-07T02:26:32.676Z,99.90
2022-08-07T02:29:03.161Z,99.90
2022-08-07T02:31:32.788Z,99.90
2022-08-07T02:34:03.626Z,99.90
2022-08-07T02:36:33.288Z,99.90
2022-08-07T02:39:16.563Z,99.90
2022-08-07T02:41:54.627Z,99.90
2022-08-07T02:44:26.917Z,99.90
2022-08-07T02:47:04.241Z,99.90
2022-08-07T02:49:58.467Z,99.90
2022-08-07T02:52:30.954Z,99.90
2022-08-07T02:55:04.480Z,99.90
2022-08-07T02:57:46.768Z,99.90
2022-08-07T03:00:15.597Z,99.90
2022-08-07T03:02:54.418Z,99.90
2022-08-07T03:05:24.645Z,99.90
2022-08-07T03:08:07.515Z,99.90
2022-08-07T03:10:41.099Z,99.90
2022-08-07T03:13:15.509Z,99.90
2022-08-07T03:15:58.476Z,99.90
2022-08-07T03:18:34.785Z,99.90
2022-08-07T03:21:04.517Z,99.90
2022-08-07T03:24:19.720Z,99.90
2022-08-07T03:26:24.083Z,99.90
2022-08-07T03:28:52.389Z,99.90
2022-08-07T03:31:24.410Z,99.90
2022-08-07T03:33:57.326Z,99.90
2022-08-07T03:36:26.540Z,99.90
2022-08-07T03:38:56.399Z,99.90
2022-08-07T03:41:42.306Z,99.90
2022-08-07T03:44:15.362Z,99.90
2022-08-07T03:47:13.398Z,99.90
2022-08-07T03:49:31.581Z,99.90
2022-08-07T03:52:01.851Z,99.90
2022-08-07T03:54:35.336Z,99.90
2022-08-07T03:58:35.081Z,99.90
2022-08-07T04:00:09.058Z,99.90
2022-08-07T04:02:41.278Z,99.90
2022-08-07T04:05:09.623Z,99.90
2022-08-07T04:07:42.555Z,99.90
2022-08-07T04:10:15.377Z,99.90
2022-08-07T04:12:45.341Z,99.90
2022-08-07T04:15:16.018Z,99.90
2022-08-07T04:18:57.024Z,99.90
2022-08-07T04:20:35.270Z,99.90
2022-08-07T04:23:06.462Z,99.90
2022-08-07T04:25:39.139Z,99.90
2022-08-07T04:28:13.497Z,99.90
2022-08-07T04:30:55.120Z,99.90
2022-08-07T04:33:25.418Z,99.90
2022-08-07T04:35:54.065Z,99.90
2022-08-07T04:38:22.866Z,99.90
2022-08-07T04:40:51.632Z,99.90
2022-08-07T04:44:14.549Z,99.90
2022-08-07T04:46:20.141Z,99.90
2022-08-07T04:49:01.747Z,99.90
2022-08-07T04:51:34.381Z,99.90
2022-08-07T04:54:06.958Z,99.90
2022-08-07T04:58:16.965Z,99.90
2022-08-07T05:00:11.477Z,99.90
2022-08-07T05:02:25.098Z,99.90
2022-08-07T05:04:57.487Z,99.90
2022-08-07T05:07:37.005Z,99.90
2022-08-07T05:10:19.504Z,98.60
2022-08-07T05:12:53.069Z,95.70
2022-08-07T05:15:26.603Z,95.70
2022-08-07T05:17:56.855Z,94.30
2022-08-07T05:20:27.238Z,92.50
2022-08-07T05:22:57.754Z,91.60
2022-08-07T05:25:54.381Z,91.50
2022-08-07T05:28:22.703Z,91.50
2022-08-07T05:30:53.275Z,90.70
2022-08-07T05:33:22.240Z,90.70
2022-08-07T05:35:50.992Z,90.50
2022-08-07T05:38:59.608Z,88.00
2022-08-07T05:41:12.261Z,88.10
2022-08-07T05:44:01.128Z,86.50
2022-08-07T05:46:35.930Z,86.00
2022-08-07T05:49:11.746Z,84.70
2022-08-07T05:51:40.851Z,84.40
2022-08-07T05:54:30.861Z,82.30
2022-08-07T05:56:59.062Z,81.80
2022-08-07T05:59:28.069Z,79.70
2022-08-07T06:01:58.271Z,79.40
2022-08-07T06:04:30.279Z,78.10
2022-08-07T06:07:03.872Z,77.20
2022-08-07T06:10:04.767Z,74.00
2022-08-07T06:12:27.840Z,73.30
2022-08-07T06:15:05.211Z,72.20
2022-08-07T06:17:37.390Z,70.50
2022-08-07T06:20:12.771Z,68.20
2022-08-07T06:23:02.090Z,66.30
2022-08-07T06:25:54.379Z,67.00
2022-08-07T06:28:27.401Z,63.60
2022-08-07T06:30:56.046Z,61.60
2022-08-07T06:33:25.427Z,61.80
2022-08-07T06:36:12.235Z,61.90
2022-08-07T06:38:51.620Z,61.00
2022-08-07T06:42:00.702Z,60.40
2022-08-07T06:44:17.907Z,60.10
2022-08-07T06:46:53.186Z,58.70
2022-08-07T06:49:29.380Z,58.60
2022-08-07T06:51:59.587Z,58.50
2022-08-07T06:55:33.207Z,58.60
2022-08-07T06:57:26.422Z,57.80
2022-08-07T07:00:14.844Z,58.70
2022-08-07T07:02:48.631Z,58.00
2022-08-07T07:06:03.200Z,57.90
2022-08-07T07:08:18.886Z,57.90
2022-08-07T07:10:56.398Z,57.40
2022-08-07T07:13:56.103Z,57.60
2022-08-07T07:16:19.636Z,57.30
2022-08-07T07:18:51.196Z,57.00
2022-08-07T07:21:27.036Z,57.30
2022-08-07T07:24:06.298Z,55.80
2022-08-07T07:26:40.670Z,55.90
2022-08-07T07:29:39.209Z,55.90
2022-08-07T07:32:00.180Z,55.00
2022-08-07T07:34:31.926Z,54.50
2022-08-07T07:37:05.377Z,51.20
2022-08-07T07:39:54.491Z,53.00
2022-08-07T07:42:30.007Z,52.10
2022-08-07T07:45:02.660Z,49.50
2022-08-07T07:47:51.935Z,48.60
2022-08-07T07:50:34.518Z,49.20
2022-08-07T07:53:20.232Z,48.20
2022-08-07T07:55:54.698Z,48.40
2022-08-07T07:58:26.203Z,49.20
2022-08-07T08:00:56.569Z,46.80
2022-08-07T08:04:06.507Z,46.50
2022-08-07T08:06:14.945Z,45.80
2022-08-07T08:08:46.055Z,46.90
2022-08-07T08:11:18.220Z,44.40
2022-08-07T08:14:04.182Z,43.80
2022-08-07T08:16:35.240Z,44.70
2022-08-07T08:19:17.814Z,41.70
2022-08-07T08:22:10.797Z,41.60
2022-08-07T08:25:18.674Z,40.40
2022-08-07T08:27:56.714Z,43.20
2022-08-07T08:30:31.977Z,42.60
2022-08-07T08:33:03.764Z,42.30
2022-08-07T08:35:39.286Z,41.20
2022-08-07T08:38:16.266Z,41.20
2022-08-07T08:40:49.281Z,41.00
2022-08-07T08:43:20.989Z,38.60
2022-08-07T08:46:06.102Z,38.40
2022-08-07T08:48:38.502Z,39.30
2022-08-07T08:51:14.624Z,40.70
2022-08-07T08:54:00.039Z,39.40
2022-08-07T08:56:31.599Z,37.40
2022-08-07T08:59:06.373Z,38.70
2022-08-07T09:01:46.722Z,39.50
2022-08-07T09:04:25.874Z,39.90
2022-08-07T09:07:02.073Z,37.10
2022-08-07T09:09:48.070Z,35.50
2022-08-07T09:12:34.065Z,35.70
2022-08-07T09:16:25.229Z,37.60
2022-08-07T09:18:05.100Z,36.90
2022-08-07T09:20:58.086Z,34.60
2022-08-07T09:24:31.220Z,33.50
2022-08-07T09:26:28.338Z,35.60
2022-08-07T09:30:05.238Z,37.00
2022-08-07T09:31:55.818Z,37.40
2022-08-07T09:34:27.288Z,35.10
2022-08-07T09:37:00.330Z,35.80
2022-08-07T09:39:54.796Z,35.60
2022-08-07T09:42:33.573Z,36.60
2022-08-07T09:47:50.387Z,35.10
2022-08-07T09:48:07.496Z,35.90
2022-08-07T09:50:47.429Z,35.20
2022-08-07T09:53:22.593Z,37.20
2022-08-07T09:56:04.993Z,36.50
2022-08-07T09:58:43.427Z,36.80
2022-08-07T10:01:51.172Z,38.40
2022-08-07T10:04:32.925Z,38.00
2022-08-07T10:07:24.478Z,36.40
2022-08-07T10:10:03.955Z,36.20
2022-08-07T10:12:41.856Z,35.10
2022-08-07T10:15:37.579Z,34.10
2022-08-07T10:18:29.125Z,36.20
2022-08-07T10:21:19.483Z,35.50
2022-08-07T10:24:08.489Z,36.40
2022-08-07T10:26:51.653Z,37.10
2022-08-07T10:29:45.588Z,36.20
2022-08-07T10:32:50.926Z,35.40
2022-08-07T10:35:25.545Z,33.90
2022-08-07T10:38:20.839Z,34.30
2022-08-07T10:40:49.949Z,35.40
2022-08-07T10:43:34.260Z,35.20
2022-08-07T10:46:08.354Z,37.00
2022-08-07T10:48:39.894Z,37.30
2022-08-07T10:51:16.343Z,36.20
2022-08-07T10:53:47.499Z,36.20
2022-08-07T10:56:31.545Z,34.80
2022-08-07T10:59:07.833Z,35.30
2022-08-07T11:01:51.617Z,35.20
2022-08-07T11:04:37.781Z,34.80
2022-08-07T11:07:15.145Z,34.20
2022-08-07T11:10:09.400Z,35.70
2022-08-07T11:12:43.430Z,35.40
2022-08-07T11:15:14.894Z,34.70
2022-08-07T11:17:49.558Z,36.10
2022-08-07T11:20:22.597Z,37.30
2022-08-07T11:22:56.556Z,36.00
2022-08-07T11:25:26.947Z,35.40
2022-08-07T11:28:03.296Z,34.10
2022-08-07T11:30:41.816Z,37.50
2022-08-07T11:33:15.824Z,37.70
2022-08-07T11:35:59.428Z,37.50
2022-08-07T11:38:32.898Z,36.20
2022-08-07T11:41:05.672Z,37.20
2022-08-07T11:43:54.648Z,34.50
2022-08-07T11:46:33.663Z,34.50
2022-08-07T11:49:51.421Z,34.00
2022-08-07T11:52:14.815Z,33.70
2022-08-07T11:54:57.368Z,35.90
2022-08-07T11:58:00.769Z,32.70
2022-08-07T12:00:28.413Z,34.80
2022-08-07T12:03:44.384Z,36.20
2022-08-07T12:06:37.210Z,35.40
2022-08-07T12:09:02.903Z,37.10
2022-08-07T12:11:43.407Z,37.20
2022-08-07T12:14:27.213Z,36.70
2022-08-07T12:16:57.090Z,34.70
2022-08-07T12:19:35.947Z,36.10
2022-08-07T12:22:39.372Z,35.60
2022-08-07T12:26:05.724Z,35.00
2022-08-07T12:28:31.336Z,35.70
2022-08-07T12:31:03.718Z,35.90
2022-08-07T12:34:00.814Z,35.60
2022-08-07T12:36:33.085Z,36.80
2022-08-07T12:39:03.325Z,37.20
2022-08-07T12:41:52.161Z,38.20
2022-08-07T12:44:22.800Z,36.60
2022-08-07T12:46:58.714Z,37.00
2022-08-07T12:49:48.916Z,36.10
2022-08-07T12:52:20.659Z,35.80
2022-08-07T12:55:05.632Z,36.60
2022-08-07T12:58:00.646Z,36.30
2022-08-07T13:00:41.643Z,37.20
2022-08-07T13:03:59.123Z,38.10
2022-08-07T13:06:21.974Z,37.30
2022-08-07T13:09:02.687Z,37.60
2022-08-07T13:12:02.501Z,37.10
2022-08-07T13:14:37.670Z,37.20
2022-08-07T13:17:23.383Z,37.70
2022-08-07T13:20:10.592Z,37.80
2022-08-07T13:22:40.752Z,36.80
2022-08-07T13:25:23.902Z,35.20
2022-08-07T13:28:11.724Z,36.80
2022-08-07T13:30:49.011Z,37.20
2022-08-07T13:34:29.942Z,36.50
2022-08-07T13:36:20.183Z,36.10
2022-08-07T13:38:50.849Z,35.10
2022-08-07T13:41:27.857Z,35.20
2022-08-07T13:43:58.398Z,35.90
2022-08-07T13:46:33.420Z,36.30
2022-08-07T13:49:08.684Z,33.40
2022-08-07T13:52:04.967Z,33.90
2022-08-07T13:54:49.411Z,35.00
2022-08-07T13:57:24.050Z,35.30
2022-08-07T13:59:55.619Z,34.40
2022-08-07T14:02:29.761Z,35.00
2022-08-07T14:05:05.086Z,35.60
2022-08-07T14:07:34.267Z,34.70
2022-08-07T14:10:20.468Z,34.60
2022-08-07T14:12:55.713Z,34.40
2022-08-07T14:15:34.990Z,35.20
2022-08-07T14:18:24.531Z,33.80
2022-08-07T14:20:55.869Z,36.90
2022-08-07T14:23:31.749Z,37.50
2022-08-07T14:26:28.054Z,37.80
2022-08-07T14:29:08.452Z,38.40
2022-08-07T14:31:42.909Z,38.20
2022-08-07T14:34:27.178Z,37.60
2022-08-07T14:36:59.068Z,36.20
2022-08-07T14:40:16.565Z,35.30
2022-08-07T14:42:23.070Z,35.90
2022-08-07T14:44:53.999Z,37.00
2022-08-07T14:47:32.535Z,37.80
2022-08-07T14:50:11.307Z,37.10
2022-08-07T14:52:43.632Z,37.30
2022-08-07T14:55:17.699Z,37.40
2022-08-07T15:00:38.485Z,36.80
2022-08-07T15:03:19.324Z,37.50
2022-08-07T15:05:54.388Z,36.30
2022-08-07T15:08:34.477Z,37.60
2022-08-07T15:11:03.819Z,38.40
2022-08-07T15:13:35.898Z,37.80
2022-08-07T15:16:11.266Z,37.60
2022-08-07T15:18:43.413Z,38.30
2022-08-07T15:21:44.086Z,38.50
2022-08-07T15:27:01.219Z,38.50
2022-08-07T15:30:09.462Z,37.70
2022-08-07T15:35:14.720Z,38.30
2022-08-07T15:40:38.798Z,39.10
2022-08-07T15:43:33.335Z,38.70
2022-08-07T15:46:32.155Z,38.40
2022-08-07T15:49:14.269Z,39.00
2022-08-07T15:54:26.781Z,40.10
2022-08-07T15:57:00.605Z,39.50
2022-08-07T15:59:40.069Z,38.70
2022-08-07T16:02:15.533Z,39.00
2022-08-07T16:04:44.113Z,38.80
2022-08-07T16:08:28.503Z,39.70
2022-08-07T16:10:08.715Z,40.20
2022-08-07T16:13:01.250Z,40.10
2022-08-07T16:15:54.854Z,39.40
2022-08-07T16:18:49.869Z,40.30
2022-08-07T16:22:01.652Z,40.80
2022-08-07T16:24:34.355Z,40.20
2022-08-07T16:27:18.395Z,39.80
2022-08-07T16:30:09.831Z,40.30
2022-08-07T16:32:46.250Z,40.70
2022-08-07T16:35:58.722Z,40.80
2022-08-07T16:38:19.493Z,41.20
2022-08-07T16:41:02.129Z,41.40
2022-08-07T16:44:04.232Z,41.90
2022-08-07T16:47:05.955Z,42.20
2022-08-07T16:50:27.448Z,42.40
2022-08-07T16:52:57.330Z,42.50
2022-08-07T16:55:47.127Z,42.00
2022-08-07T16:58:21.803Z,42.60
2022-08-07T17:01:15.635Z,43.00
2022-08-07T17:03:58.057Z,42.90
2022-08-07T17:06:44.588Z,43.00
2022-08-07T17:10:06.790Z,43.10
2022-08-07T17:12:44.729Z,43.50
2022-08-07T17:14:58.802Z,42.80
2022-08-07T17:17:46.650Z,43.00
2022-08-07T17:20:21.479Z,43.20
2022-08-07T17:22:55.539Z,43.80
2022-08-07T17:25:47.472Z,43.70
2022-08-07T17:28:19.584Z,44.10
2022-08-07T17:30:58.346Z,44.10
2022-08-07T17:34:09.216Z,44.30
2022-08-07T17:36:20.885Z,44.50
2022-08-07T17:38:56.002Z,45.00
2022-08-07T17:42:01.495Z,45.20
2022-08-07T17:44:33.746Z,45.20
2022-08-07T17:47:16.916Z,45.20
2022-08-07T17:50:01.292Z,45.00
2022-08-07T17:52:35.334Z,44.80
2022-08-07T17:55:12.664Z,44.40
2022-08-07T17:57:58.510Z,44.60
2022-08-07T18:00:34.252Z,44.70
2022-08-07T18:03:18.216Z,45.10
2022-08-07T18:06:02.401Z,45.30
2022-08-07T18:09:01.039Z,45.40
2022-08-07T18:12:16.661Z,45.40
2022-08-07T18:14:26.188Z,45.20
2022-08-07T18:16:58.485Z,44.80
2022-08-07T18:21:06.522Z,44.30
2022-08-07T18:22:27.296Z,44.30
2022-08-07T18:25:01.720Z,44.30
2022-08-07T18:28:07.385Z,44.90
2022-08-07T18:30:39.916Z,45.20
2022-08-07T18:33:30.762Z,45.30
2022-08-07T18:36:05.982Z,45.40
2022-08-07T18:38:56.077Z,45.80
2022-08-07T18:41:46.038Z,45.80
2022-08-07T18:44:27.363Z,45.80
2022-08-07T18:47:00.175Z,45.80
2022-08-07T18:50:35.117Z,46.30
2022-08-07T18:52:51.849Z,46.80
2022-08-07T18:55:42.723Z,46.70
2022-08-07T18:58:23.340Z,47.00
2022-08-07T19:00:59.271Z,47.00
2022-08-07T19:03:38.050Z,46.70
2022-08-07T19:06:10.195Z,47.00
2022-08-07T19:08:58.687Z,47.40
2022-08-07T19:11:39.243Z,47.50
2022-08-07T19:14:42.842Z,47.50
2022-08-07T19:17:59.231Z,48.30
2022-08-07T19:20:29.048Z,49.30
2022-08-07T19:23:18.220Z,49.70
2022-08-07T19:26:23.327Z,50.30
2022-08-07T19:30:55.403Z,50.50
2022-08-07T19:32:10.568Z,51.00
2022-08-07T19:34:34.208Z,52.10
2022-08-07T19:37:17.128Z,52.90
2022-08-07T19:39:57.435Z,53.30
2022-08-07T19:42:31.385Z,53.70
2022-08-07T19:45:00.512Z,53.70
2022-08-07T19:47:42.111Z,55.10
2022-08-07T19:50:43.829Z,55.20
2022-08-07T19:53:01.185Z,56.00
2022-08-07T19:55:57.928Z,56.40
2022-08-07T19:58:28.234Z,56.80
2022-08-07T20:00:57.470Z,57.50
2022-08-07T20:03:35.472Z,57.60
2022-08-07T20:06:05.063Z,58.10
2022-08-07T20:08:34.749Z,57.70
2022-08-07T20:11:09.974Z,58.10
2022-08-07T20:13:43.615Z,58.30
2022-08-07T20:16:32.115Z,58.50
2022-08-07T20:19:04.946Z,59.00
2022-08-07T20:21:41.791Z,59.50
2022-08-07T20:24:17.701Z,60.30
2022-08-07T20:26:50.213Z,61.70
2022-08-07T20:29:48.031Z,62.50
2022-08-07T20:32:22.964Z,62.50
2022-08-07T20:34:55.441Z,62.40
2022-08-07T20:37:29.455Z,62.70
2022-08-07T20:40:02.307Z,62.80
2022-08-07T20:42:33.267Z,63.10
2022-08-07T20:45:02.076Z,63.60
2022-08-07T20:47:56.530Z,63.70
2022-08-07T20:50:23.588Z,64.50
2022-08-07T20:52:52.891Z,65.30
2022-08-07T20:55:23.890Z,65.50
2022-08-07T20:58:04.232Z,67.10
2022-08-07T21:00:44.182Z,66.80
2022-08-07T21:03:12.816Z,67.10
2022-08-07T21:05:56.142Z,67.40
2022-08-07T21:08:38.225Z,68.10
2022-08-07T21:11:10.780Z,68.10
2022-08-07T21:13:57.208Z,68.80
2022-08-07T21:16:32.218Z,69.40
2022-08-07T21:19:00.541Z,70.80
2022-08-07T21:21:48.918Z,70.40
2022-08-07T21:24:25.508Z,71.70
2022-08-07T21:26:57.175Z,71.10
2022-08-07T21:29:30.550Z,71.10
2022-08-07T21:32:47.066Z,71.30
2022-08-07T21:34:56.510Z,71.10
2022-08-07T21:37:57.520Z,71.70
2022-08-07T21:40:23.274Z,72.20
2022-08-07T21:42:55.891Z,72.80
2022-08-07T21:46:05.256Z,72.90
2022-08-07T21:48:29.092Z,73.50
2022-08-07T21:51:06.098Z,73.40
2022-08-07T21:53:52.494Z,74.10
2022-08-07T21:56:39.673Z,74.10
2022-08-07T21:59:14.746Z,74.50
2022-08-07T22:02:10.210Z,74.80
2022-08-07T22:04:37.454Z,74.90
2022-08-07T22:07:06.770Z,75.10
2022-08-07T22:09:54.107Z,75.10
2022-08-07T22:12:26.530Z,75.80
2022-08-07T22:15:03.314Z,76.00
2022-08-07T22:17:56.018Z,75.70
2022-08-07T22:20:28.534Z,76.20
2022-08-07T22:23:01.592Z,76.00
2022-08-07T22:25:36.276Z,76.10
2022-08-07T22:28:29.704Z,75.60
2022-08-07T22:30:58.006Z,75.70
2022-08-07T22:33:56.269Z,74.40
2022-08-07T22:36:30.351Z,74.20
2022-08-07T22:39:02.219Z,74.30
2022-08-07T22:42:03.119Z,74.40
2022-08-07T22:44:29.088Z,74.30
2022-08-07T22:47:17.360Z,74.10
2022-08-07T22:50:03.102Z,74.60
2022-08-07T22:52:48.766Z,75.00
2022-08-07T22:55:30.619Z,75.10
2022-08-07T22:58:05.455Z,73.70
2022-08-07T23:00:38.249Z,74.70
2022-08-07T23:03:19.094Z,74.50
2022-08-07T23:06:08.954Z,75.00
2022-08-07T23:10:00.926Z,74.10
2022-08-07T23:11:52.913Z,74.60
2022-08-07T23:14:47.396Z,74.80
2022-08-07T23:17:24.435Z,74.30
2022-08-07T23:20:19.323Z,73.30
2022-08-07T23:22:52.344Z,73.80
2022-08-07T23:25:28.683Z,73.50
2022-08-07T23:28:22.047Z,74.50
2022-08-07T23:31:06.184Z,74.70
2022-08-07T23:34:34.013Z,75.40
2022-08-07T23:36:37.670Z,75.40
2022-08-07T23:39:09.521Z,75.60
2022-08-07T23:42:01.511Z,76.10
2022-08-07T23:44:41.828Z,76.50
2022-08-07T23:47:21.498Z,77.20
2022-08-07T23:50:01.039Z,77.60
2022-08-07T23:53:11.749Z,78.10
2022-08-07T23:55:52.638Z,78.60
2022-08-07T23:58:24.267Z,78.90
